Crescent Valley, Washington
Current Conditions -  °F | °C
As of 12:53 PM on Thursday 23 Oct 2014 (Local Time) from KTIW Reporting Station
Broken Clouds Broken Clouds  
Wind Chill: 57°   Ceiling: 6000
Heat Index: 57°   Visibility: 10mi
Dew Point: 49°   Wind: 14mph
Humidity: 74%   Direction: 190°S
Pressure: 29.83"   Gusts: 23mph
Location:  47.2986°N, 122.616°W
Report Text: KTIW 231953Z 19012G20KT 10SM FEW041 BKN060 14/09 A2983 RMK AO2 SLP102 T01390094
Loading
Personal Weather Stations






























Interactive Weather Map
Tropical Storm Tracking
New forecast layout! Learn more

10-Day Weather Forecast

Advertisements
Track Severe Weather on mobile